KSMF/SMF METAR and TAF weather

Enter ICAO airport designator
Station Type Date Time Source
KSMF METAR 2021/09/23 16:53 UTC NOAA

KSMF 231653Z 32005KT 10SM BKN250 23/08 A2994 RMK AO2 SLP137 T02330078


Station Type Date Time Source
KSMF Decoded METAR 2021/09/23 16:53 UTC NOAA

SACRAMENTO INTERNATIONAL AIRPORT, CA, United States (KSMF) 38-42N 121-36W 6M
Sep 23, 2021 - 12:53 PM EDT / 2021.09.23 1653 UTC
Wind: from the NW (320 degrees) at 6 MPH (5 KT):0
Visibility: 10 mile(s):0
Sky conditions: mostly cloudy
Temperature: 73.9 F (23.3 C)
Dew Point: 46.0 F (7.8 C)
Relative Humidity: 36%
Pressure (altimeter): 29.94 in. Hg (1013 hPa)
ob: KSMF 231653Z 32005KT 10SM BKN250 23/08 A2994 RMK AO2 SLP137 T02330078
cycle: 17

Station Type Date Time Source
KSMF TAF 2021/09/23 12:22 UTC NOAA

TAF KSMF 231120Z 2312/2412 33008KT P6SM SKC
FM240400 17006KT P6SM FEW250

Example: see airport list